Terminal Aerodrome Forecast
Issued by NWS

Current Version | Previous Version | Text Only | Print | Product List | Glossary On
Versions: 1 2 3 4 5 6 7 8 9 10 11 12 13 14 15 16 17
000 FTUS41 KGYX 252320 TAFPSM TAF KPSM 252320Z 2600/2624 11014KT 1SM RA OVC003 WS020/15035KT FM260200 08010KT 3/4SM -DZ BR OVC002 FM261400 21007KT 5SM BR OVC007 FM261600 26011G18KT P6SM BKN050=

USA.gov is the U.S. government's official web portal to all federal, state and local government web resources and services.